sensor_id;sensor_type;location;lat;lon;timestamp;P1;durP1;ratioP1;P2;durP2;ratioP2
21243;SDS011;10780;50.942;4.028;2023-06-19T00:00:30;4.78;;;3.58;;
21243;SDS011;10780;50.942;4.028;2023-06-19T00:02:55;7.30;;;3.70;;
21243;SDS011;10780;50.942;4.028;2023-06-19T00:05:21;5.22;;;3.70;;
21243;SDS011;10780;50.942;4.028;2023-06-19T00:07:48;5.53;;;3.90;;
21243;SDS011;10780;50.942;4.028;2023-06-19T00:10:14;6.30;;;4.10;;
21243;SDS011;10780;50.942;4.028;2023-06-19T00:12:40;5.43;;;3.42;;
21243;SDS011;10780;50.942;4.028;2023-06-19T00:15:06;5.10;;;3.83;;
21243;SDS011;10780;50.942;4.028;2023-06-19T00:17:34;6.40;;;3.80;;
21243;SDS011;10780;50.942;4.028;2023-06-19T00:20:02;5.95;;;4.28;;
21243;SDS011;10780;50.942;4.028;2023-06-19T00:22:29;7.25;;;4.25;;
21243;SDS011;10780;50.942;4.028;2023-06-19T00:24:54;5.53;;;4.05;;
21243;SDS011;10780;50.942;4.028;2023-06-19T00:27:20;4.85;;;3.92;;
21243;SDS011;10780;50.942;4.028;2023-06-19T00:29:46;6.63;;;4.22;;
21243;SDS011;10780;50.942;4.028;2023-06-19T00:32:11;5.55;;;4.15;;
21243;SDS011;10780;50.942;4.028;2023-06-19T00:34:37;7.85;;;4.30;;
21243;SDS011;10780;50.942;4.028;2023-06-19T00:37:03;8.10;;;4.40;;
21243;SDS011;10780;50.942;4.028;2023-06-19T00:39:29;9.65;;;4.45;;
21243;SDS011;10780;50.942;4.028;2023-06-19T00:41:56;7.22;;;4.57;;
21243;SDS011;10780;50.942;4.028;2023-06-19T00:44:22;5.88;;;4.40;;
21243;SDS011;10780;50.942;4.028;2023-06-19T00:46:50;8.38;;;4.40;;
21243;SDS011;10780;50.942;4.028;2023-06-19T00:49:20;6.35;;;4.80;;
21243;SDS011;10780;50.942;4.028;2023-06-19T00:51:46;6.35;;;4.65;;
21243;SDS011;10780;50.942;4.028;2023-06-19T00:54:12;5.95;;;4.50;;
21243;SDS011;10780;50.942;4.028;2023-06-19T00:56:38;6.50;;;4.63;;
21243;SDS011;10780;50.942;4.028;2023-06-19T00:59:11;7.82;;;4.82;;
21243;SDS011;10780;50.942;4.028;2023-06-19T01:01:42;6.90;;;4.30;;
21243;SDS011;10780;50.942;4.028;2023-06-19T01:04:07;6.90;;;4.72;;
21243;SDS011;10780;50.942;4.028;2023-06-19T01:06:37;7.90;;;5.00;;
21243;SDS011;10780;50.942;4.028;2023-06-19T01:09:11;5.78;;;4.30;;
21243;SDS011;10780;50.942;4.028;2023-06-19T01:11:42;5.35;;;4.80;;
21243;SDS011;10780;50.942;4.028;2023-06-19T01:14:27;6.30;;;4.60;;
21243;SDS011;10780;50.942;4.028;2023-06-19T01:17:00;10.65;;;5.70;;
21243;SDS011;10780;50.942;4.028;2023-06-19T01:19:25;6.15;;;5.15;;
21243;SDS011;10780;50.942;4.028;2023-06-19T01:21:52;8.90;;;4.88;;
21243;SDS011;10780;50.942;4.028;2023-06-19T01:24:17;8.88;;;5.63;;
21243;SDS011;10780;50.942;4.028;2023-06-19T01:26:43;6.30;;;5.30;;
21243;SDS011;10780;50.942;4.028;2023-06-19T01:29:15;8.57;;;5.90;;
21243;SDS011;10780;50.942;4.028;2023-06-19T01:31:49;8.32;;;5.78;;
21243;SDS011;10780;50.942;4.028;2023-06-19T01:34:18;7.30;;;5.85;;
21243;SDS011;10780;50.942;4.028;2023-06-19T01:36:45;8.32;;;5.72;;
21243;SDS011;10780;50.942;4.028;2023-06-19T01:39:14;10.57;;;5.88;;
21243;SDS011;10780;50.942;4.028;2023-06-19T01:41:40;7.90;;;6.07;;
21243;SDS011;10780;50.942;4.028;2023-06-19T01:44:07;12.15;;;6.78;;
21243;SDS011;10780;50.942;4.028;2023-06-19T01:46:33;9.45;;;6.55;;
21243;SDS011;10780;50.942;4.028;2023-06-19T01:48:59;8.20;;;6.32;;
21243;SDS011;10780;50.942;4.028;2023-06-19T01:51:25;8.30;;;6.63;;
21243;SDS011;10780;50.942;4.028;2023-06-19T01:53:51;10.00;;;6.88;;
21243;SDS011;10780;50.942;4.028;2023-06-19T01:56:16;10.70;;;7.05;;
21243;SDS011;10780;50.942;4.028;2023-06-19T01:58:42;9.32;;;7.45;;
21243;SDS011;10780;50.942;4.028;2023-06-19T02:01:07;10.57;;;7.30;;
21243;SDS011;10780;50.942;4.028;2023-06-19T02:03:33;10.23;;;7.38;;
21243;SDS011;10780;50.942;4.028;2023-06-19T02:05:59;11.30;;;8.15;;
21243;SDS011;10780;50.942;4.028;2023-06-19T02:08:24;11.90;;;9.23;;
21243;SDS011;10780;50.942;4.028;2023-06-19T02:10:50;12.45;;;8.00;;
21243;SDS011;10780;50.942;4.028;2023-06-19T02:13:15;8.50;;;7.60;;
21243;SDS011;10780;50.942;4.028;2023-06-19T02:15:41;11.45;;;7.95;;
21243;SDS011;10780;50.942;4.028;2023-06-19T02:18:07;9.98;;;7.68;;
21243;SDS011;10780;50.942;4.028;2023-06-19T02:20:33;10.77;;;7.75;;
21243;SDS011;10780;50.942;4.028;2023-06-19T02:22:59;8.85;;;7.57;;
21243;SDS011;10780;50.942;4.028;2023-06-19T02:25:25;9.82;;;6.95;;
21243;SDS011;10780;50.942;4.028;2023-06-19T02:27:50;10.48;;;7.65;;
21243;SDS011;10780;50.942;4.028;2023-06-19T02:30:16;9.70;;;7.22;;
21243;SDS011;10780;50.942;4.028;2023-06-19T02:32:41;6.93;;;6.10;;
21243;SDS011;10780;50.942;4.028;2023-06-19T02:35:09;6.93;;;5.88;;
21243;SDS011;10780;50.942;4.028;2023-06-19T02:37:36;7.38;;;5.55;;
21243;SDS011;10780;50.942;4.028;2023-06-19T02:40:05;9.57;;;5.90;;
21243;SDS011;10780;50.942;4.028;2023-06-19T02:42:31;8.07;;;6.90;;
21243;SDS011;10780;50.942;4.028;2023-06-19T02:44:57;8.43;;;5.88;;
21243;SDS011;10780;50.942;4.028;2023-06-19T02:47:28;7.30;;;5.90;;
21243;SDS011;10780;50.942;4.028;2023-06-19T02:50:01;7.90;;;5.65;;
21243;SDS011;10780;50.942;4.028;2023-06-19T02:52:29;8.98;;;5.60;;
21243;SDS011;10780;50.942;4.028;2023-06-19T02:54:55;9.23;;;5.82;;
21243;SDS011;10780;50.942;4.028;2023-06-19T02:57:21;7.15;;;5.10;;
21243;SDS011;10780;50.942;4.028;2023-06-19T02:59:46;8.90;;;6.25;;
21243;SDS011;10780;50.942;4.028;2023-06-19T03:02:12;7.38;;;5.30;;
21243;SDS011;10780;50.942;4.028;2023-06-19T03:04:38;7.90;;;5.70;;
21243;SDS011;10780;50.942;4.028;2023-06-19T03:07:05;8.98;;;6.97;;
21243;SDS011;10780;50.942;4.028;2023-06-19T03:09:31;9.48;;;6.13;;
21243;SDS011;10780;50.942;4.028;2023-06-19T03:11:56;10.82;;;6.28;;
21243;SDS011;10780;50.942;4.028;2023-06-19T03:14:22;7.47;;;5.82;;
21243;SDS011;10780;50.942;4.028;2023-06-19T03:16:47;7.07;;;5.95;;
21243;SDS011;10780;50.942;4.028;2023-06-19T03:19:13;7.32;;;5.93;;
21243;SDS011;10780;50.942;4.028;2023-06-19T03:21:39;7.43;;;5.60;;
21243;SDS011;10780;50.942;4.028;2023-06-19T03:24:05;8.45;;;6.60;;
21243;SDS011;10780;50.942;4.028;2023-06-19T03:26:30;9.13;;;5.80;;
21243;SDS011;10780;50.942;4.028;2023-06-19T03:28:56;7.80;;;6.03;;
21243;SDS011;10780;50.942;4.028;2023-06-19T03:31:22;10.75;;;6.22;;
21243;SDS011;10780;50.942;4.028;2023-06-19T03:33:47;9.45;;;6.38;;
21243;SDS011;10780;50.942;4.028;2023-06-19T03:36:13;8.93;;;6.13;;
21243;SDS011;10780;50.942;4.028;2023-06-19T03:38:39;8.38;;;6.38;;
21243;SDS011;10780;50.942;4.028;2023-06-19T03:41:04;8.55;;;5.93;;
21243;SDS011;10780;50.942;4.028;2023-06-19T03:43:30;7.70;;;6.47;;
21243;SDS011;10780;50.942;4.028;2023-06-19T03:45:56;7.85;;;6.63;;
21243;SDS011;10780;50.942;4.028;2023-06-19T03:48:21;8.77;;;6.57;;
21243;SDS011;10780;50.942;4.028;2023-06-19T03:50:47;7.95;;;6.70;;
21243;SDS011;10780;50.942;4.028;2023-06-19T03:53:13;9.57;;;7.40;;
21243;SDS011;10780;50.942;4.028;2023-06-19T03:55:39;8.48;;;7.07;;
21243;SDS011;10780;50.942;4.028;2023-06-19T03:58:04;9.23;;;7.78;;
21243;SDS011;10780;50.942;4.028;2023-06-19T04:00:31;11.30;;;7.47;;
21243;SDS011;10780;50.942;4.028;2023-06-19T04:02:56;11.85;;;8.45;;
21243;SDS011;10780;50.942;4.028;2023-06-19T04:05:22;11.60;;;8.60;;
21243;SDS011;10780;50.942;4.028;2023-06-19T04:07:48;12.07;;;8.98;;
21243;SDS011;10780;50.942;4.028;2023-06-19T04:10:13;10.80;;;9.13;;
21243;SDS011;10780;50.942;4.028;2023-06-19T04:12:39;12.65;;;9.10;;
21243;SDS011;10780;50.942;4.028;2023-06-19T04:15:05;12.38;;;9.68;;
21243;SDS011;10780;50.942;4.028;2023-06-19T04:17:32;13.63;;;10.38;;
21243;SDS011;10780;50.942;4.028;2023-06-19T04:19:57;11.93;;;9.45;;
21243;SDS011;10780;50.942;4.028;2023-06-19T04:22:23;13.02;;;10.38;;
21243;SDS011;10780;50.942;4.028;2023-06-19T04:24:49;16.67;;;11.00;;
21243;SDS011;10780;50.942;4.028;2023-06-19T04:27:14;15.80;;;10.38;;
21243;SDS011;10780;50.942;4.028;2023-06-19T04:29:40;14.23;;;11.23;;
21243;SDS011;10780;50.942;4.028;2023-06-19T04:32:06;12.77;;;10.05;;
21243;SDS011;10780;50.942;4.028;2023-06-19T04:34:36;15.25;;;10.48;;
21243;SDS011;10780;50.942;4.028;2023-06-19T04:37:11;15.80;;;11.27;;
21243;SDS011;10780;50.942;4.028;2023-06-19T04:39:37;14.27;;;11.77;;
21243;SDS011;10780;50.942;4.028;2023-06-19T04:42:02;14.98;;;11.60;;
21243;SDS011;10780;50.942;4.028;2023-06-19T04:44:28;15.43;;;12.05;;
21243;SDS011;10780;50.942;4.028;2023-06-19T04:46:58;17.00;;;12.55;;
21243;SDS011;10780;50.942;4.028;2023-06-19T04:49:26;16.42;;;11.95;;
21243;SDS011;10780;50.942;4.028;2023-06-19T04:51:57;15.75;;;12.27;;
21243;SDS011;10780;50.942;4.028;2023-06-19T04:54:23;17.02;;;12.85;;
21243;SDS011;10780;50.942;4.028;2023-06-19T04:56:49;17.73;;;12.25;;
21243;SDS011;10780;50.942;4.028;2023-06-19T04:59:15;16.98;;;12.75;;
21243;SDS011;10780;50.942;4.028;2023-06-19T05:01:43;16.17;;;12.18;;
21243;SDS011;10780;50.942;4.028;2023-06-19T05:04:09;18.60;;;13.40;;
21243;SDS011;10780;50.942;4.028;2023-06-19T05:06:36;18.13;;;13.50;;
21243;SDS011;10780;50.942;4.028;2023-06-19T05:09:02;18.00;;;13.85;;
21243;SDS011;10780;50.942;4.028;2023-06-19T05:11:28;19.85;;;14.57;;
21243;SDS011;10780;50.942;4.028;2023-06-19T05:13:53;19.10;;;14.98;;
21243;SDS011;10780;50.942;4.028;2023-06-19T05:16:19;16.83;;;14.32;;
21243;SDS011;10780;50.942;4.028;2023-06-19T05:18:45;20.25;;;15.38;;
21243;SDS011;10780;50.942;4.028;2023-06-19T05:21:10;18.45;;;14.20;;
21243;SDS011;10780;50.942;4.028;2023-06-19T05:23:36;18.67;;;14.85;;
21243;SDS011;10780;50.942;4.028;2023-06-19T05:26:03;19.63;;;15.32;;
21243;SDS011;10780;50.942;4.028;2023-06-19T05:28:29;20.77;;;14.90;;
21243;SDS011;10780;50.942;4.028;2023-06-19T05:30:55;20.08;;;15.18;;
21243;SDS011;10780;50.942;4.028;2023-06-19T05:33:20;20.55;;;15.10;;
21243;SDS011;10780;50.942;4.028;2023-06-19T05:35:48;18.92;;;13.73;;
21243;SDS011;10780;50.942;4.028;2023-06-19T05:38:17;18.80;;;14.38;;
21243;SDS011;10780;50.942;4.028;2023-06-19T05:40:43;19.17;;;14.80;;
21243;SDS011;10780;50.942;4.028;2023-06-19T05:43:09;24.88;;;16.13;;
21243;SDS011;10780;50.942;4.028;2023-06-19T05:45:35;21.10;;;15.45;;
21243;SDS011;10780;50.942;4.028;2023-06-19T05:48:00;19.80;;;15.63;;
21243;SDS011;10780;50.942;4.028;2023-06-19T05:50:26;20.55;;;14.70;;
21243;SDS011;10780;50.942;4.028;2023-06-19T05:52:52;17.58;;;14.23;;
21243;SDS011;10780;50.942;4.028;2023-06-19T05:55:17;19.23;;;16.02;;
21243;SDS011;10780;50.942;4.028;2023-06-19T05:57:43;18.75;;;14.93;;
21243;SDS011;10780;50.942;4.028;2023-06-19T06:00:09;18.73;;;13.98;;
21243;SDS011;10780;50.942;4.028;2023-06-19T06:02:41;16.25;;;13.63;;
21243;SDS011;10780;50.942;4.028;2023-06-19T06:05:07;16.95;;;13.68;;
21243;SDS011;10780;50.942;4.028;2023-06-19T06:07:36;15.48;;;13.75;;
21243;SDS011;10780;50.942;4.028;2023-06-19T06:10:02;21.02;;;15.27;;
21243;SDS011;10780;50.942;4.028;2023-06-19T06:12:28;16.95;;;14.00;;
21243;SDS011;10780;50.942;4.028;2023-06-19T06:14:53;23.23;;;15.10;;
21243;SDS011;10780;50.942;4.028;2023-06-19T06:17:21;20.55;;;15.52;;
21243;SDS011;10780;50.942;4.028;2023-06-19T06:19:47;17.75;;;14.75;;
21243;SDS011;10780;50.942;4.028;2023-06-19T06:22:12;19.48;;;14.05;;
21243;SDS011;10780;50.942;4.028;2023-06-19T06:24:39;16.90;;;13.82;;
21243;SDS011;10780;50.942;4.028;2023-06-19T06:27:06;16.45;;;13.75;;
21243;SDS011;10780;50.942;4.028;2023-06-19T06:29:33;22.98;;;15.23;;
21243;SDS011;10780;50.942;4.028;2023-06-19T06:32:06;18.88;;;14.77;;
21243;SDS011;10780;50.942;4.028;2023-06-19T06:34:33;15.70;;;12.95;;
21243;SDS011;10780;50.942;4.028;2023-06-19T06:36:59;17.30;;;13.77;;
21243;SDS011;10780;50.942;4.028;2023-06-19T06:39:26;16.50;;;14.27;;
21243;SDS011;10780;50.942;4.028;2023-06-19T06:41:53;16.40;;;13.27;;
21243;SDS011;10780;50.942;4.028;2023-06-19T06:44:19;15.55;;;13.65;;
21243;SDS011;10780;50.942;4.028;2023-06-19T06:46:45;17.77;;;13.18;;
21243;SDS011;10780;50.942;4.028;2023-06-19T06:49:11;18.40;;;12.80;;
21243;SDS011;10780;50.942;4.028;2023-06-19T06:51:37;14.60;;;12.30;;
21243;SDS011;10780;50.942;4.028;2023-06-19T06:54:03;17.17;;;13.55;;
21243;SDS011;10780;50.942;4.028;2023-06-19T06:56:29;16.58;;;13.68;;
21243;SDS011;10780;50.942;4.028;2023-06-19T06:58:54;18.27;;;11.73;;
21243;SDS011;10780;50.942;4.028;2023-06-19T07:01:20;16.85;;;12.80;;
21243;SDS011;10780;50.942;4.028;2023-06-19T07:03:46;15.98;;;13.45;;
21243;SDS011;10780;50.942;4.028;2023-06-19T07:06:11;14.80;;;12.82;;
21243;SDS011;10780;50.942;4.028;2023-06-19T07:08:37;14.80;;;12.50;;
21243;SDS011;10780;50.942;4.028;2023-06-19T07:11:06;16.42;;;12.40;;
21243;SDS011;10780;50.942;4.028;2023-06-19T07:13:32;16.35;;;12.23;;
21243;SDS011;10780;50.942;4.028;2023-06-19T07:15:57;14.95;;;12.10;;
21243;SDS011;10780;50.942;4.028;2023-06-19T07:18:24;15.20;;;11.82;;
21243;SDS011;10780;50.942;4.028;2023-06-19T07:20:50;15.82;;;11.75;;
21243;SDS011;10780;50.942;4.028;2023-06-19T07:23:15;17.05;;;12.45;;
21243;SDS011;10780;50.942;4.028;2023-06-19T07:25:41;15.73;;;12.27;;
21243;SDS011;10780;50.942;4.028;2023-06-19T07:28:07;15.77;;;11.88;;
21243;SDS011;10780;50.942;4.028;2023-06-19T07:30:33;22.80;;;12.63;;
21243;SDS011;10780;50.942;4.028;2023-06-19T07:32:58;14.93;;;11.13;;
21243;SDS011;10780;50.942;4.028;2023-06-19T07:35:24;17.88;;;11.02;;
21243;SDS011;10780;50.942;4.028;2023-06-19T07:37:50;19.73;;;12.23;;
21243;SDS011;10780;50.942;4.028;2023-06-19T07:40:15;21.27;;;12.07;;
21243;SDS011;10780;50.942;4.028;2023-06-19T07:42:41;22.25;;;12.10;;
21243;SDS011;10780;50.942;4.028;2023-06-19T07:45:07;32.30;;;12.35;;
21243;SDS011;10780;50.942;4.028;2023-06-19T07:47:33;24.60;;;12.70;;
21243;SDS011;10780;50.942;4.028;2023-06-19T07:49:59;31.60;;;15.02;;
21243;SDS011;10780;50.942;4.028;2023-06-19T07:52:24;21.00;;;12.02;;
21243;SDS011;10780;50.942;4.028;2023-06-19T07:54:52;20.08;;;12.20;;
21243;SDS011;10780;50.942;4.028;2023-06-19T07:57:19;23.00;;;12.75;;
21243;SDS011;10780;50.942;4.028;2023-06-19T07:59:46;22.52;;;13.10;;
21243;SDS011;10780;50.942;4.028;2023-06-19T08:02:12;17.75;;;11.48;;
21243;SDS011;10780;50.942;4.028;2023-06-19T08:04:38;14.63;;;10.05;;
21243;SDS011;10780;50.942;4.028;2023-06-19T08:07:03;16.83;;;11.75;;
21243;SDS011;10780;50.942;4.028;2023-06-19T08:09:30;19.05;;;11.98;;
21243;SDS011;10780;50.942;4.028;2023-06-19T08:11:56;21.52;;;12.23;;
21243;SDS011;10780;50.942;4.028;2023-06-19T08:14:22;17.23;;;11.77;;
21243;SDS011;10780;50.942;4.028;2023-06-19T08:16:48;15.88;;;11.88;;
21243;SDS011;10780;50.942;4.028;2023-06-19T08:19:13;19.75;;;12.15;;
21243;SDS011;10780;50.942;4.028;2023-06-19T08:21:39;17.45;;;10.95;;
21243;SDS011;10780;50.942;4.028;2023-06-19T08:24:05;16.95;;;11.23;;
21243;SDS011;10780;50.942;4.028;2023-06-19T08:26:31;13.40;;;9.90;;
21243;SDS011;10780;50.942;4.028;2023-06-19T08:28:58;12.98;;;10.77;;
21243;SDS011;10780;50.942;4.028;2023-06-19T08:31:25;15.43;;;10.80;;
21243;SDS011;10780;50.942;4.028;2023-06-19T08:33:56;12.43;;;10.20;;
21243;SDS011;10780;50.942;4.028;2023-06-19T08:36:22;12.60;;;10.45;;
21243;SDS011;10780;50.942;4.028;2023-06-19T08:38:48;14.52;;;10.70;;
21243;SDS011;10780;50.942;4.028;2023-06-19T08:41:17;15.48;;;12.18;;
21243;SDS011;10780;50.942;4.028;2023-06-19T08:43:46;12.57;;;10.57;;
21243;SDS011;10780;50.942;4.028;2023-06-19T08:46:14;12.93;;;10.63;;
21243;SDS011;10780;50.942;4.028;2023-06-19T08:48:42;17.52;;;11.50;;
21243;SDS011;10780;50.942;4.028;2023-06-19T08:51:08;15.27;;;10.93;;
21243;SDS011;10780;50.942;4.028;2023-06-19T08:53:36;15.50;;;11.13;;
21243;SDS011;10780;50.942;4.028;2023-06-19T08:56:09;13.20;;;10.57;;
21243;SDS011;10780;50.942;4.028;2023-06-19T08:58:34;14.15;;;10.65;;
21243;SDS011;10780;50.942;4.028;2023-06-19T09:01:01;15.85;;;11.32;;
21243;SDS011;10780;50.942;4.028;2023-06-19T09:03:28;14.35;;;11.23;;
21243;SDS011;10780;50.942;4.028;2023-06-19T09:05:54;13.35;;;11.07;;
21243;SDS011;10780;50.942;4.028;2023-06-19T09:08:20;14.57;;;12.25;;
21243;SDS011;10780;50.942;4.028;2023-06-19T09:10:57;14.35;;;12.07;;
21243;SDS011;10780;50.942;4.028;2023-06-19T09:13:22;16.05;;;14.00;;
21243;SDS011;10780;50.942;4.028;2023-06-19T09:15:56;14.60;;;13.07;;
21243;SDS011;10780;50.942;4.028;2023-06-19T09:18:28;20.65;;;13.55;;
21243;SDS011;10780;50.942;4.028;2023-06-19T09:21:14;16.42;;;12.85;;
21243;SDS011;10780;50.942;4.028;2023-06-19T09:23:44;14.90;;;13.30;;
21243;SDS011;10780;50.942;4.028;2023-06-19T09:26:13;16.45;;;12.65;;
21243;SDS011;10780;50.942;4.028;2023-06-19T09:28:40;12.98;;;11.15;;
21243;SDS011;10780;50.942;4.028;2023-06-19T09:31:10;16.25;;;11.82;;
21243;SDS011;10780;50.942;4.028;2023-06-19T09:33:38;12.45;;;11.15;;
21243;SDS011;10780;50.942;4.028;2023-06-19T09:36:07;13.85;;;11.23;;
21243;SDS011;10780;50.942;4.028;2023-06-19T09:38:36;10.85;;;9.75;;
21243;SDS011;10780;50.942;4.028;2023-06-19T09:41:04;12.60;;;9.60;;
21243;SDS011;10780;50.942;4.028;2023-06-19T09:43:38;11.98;;;10.52;;
21243;SDS011;10780;50.942;4.028;2023-06-19T09:46:06;10.63;;;9.55;;
21243;SDS011;10780;50.942;4.028;2023-06-19T09:48:33;12.73;;;10.68;;
21243;SDS011;10780;50.942;4.028;2023-06-19T09:51:21;12.32;;;10.32;;
21243;SDS011;10780;50.942;4.028;2023-06-19T09:53:53;11.77;;;10.45;;
21243;SDS011;10780;50.942;4.028;2023-06-19T09:56:19;12.13;;;10.93;;
21243;SDS011;10780;50.942;4.028;2023-06-19T09:58:49;11.70;;;10.32;;
21243;SDS011;10780;50.942;4.028;2023-06-19T10:01:17;13.38;;;10.32;;
21243;SDS011;10780;50.942;4.028;2023-06-19T10:03:44;11.55;;;9.32;;
21243;SDS011;10780;50.942;4.028;2023-06-19T10:06:14;10.77;;;9.63;;
21243;SDS011;10780;50.942;4.028;2023-06-19T10:08:45;13.73;;;11.35;;
21243;SDS011;10780;50.942;4.028;2023-06-19T10:11:11;14.02;;;11.55;;
21243;SDS011;10780;50.942;4.028;2023-06-19T10:13:41;13.18;;;11.45;;
21243;SDS011;10780;50.942;4.028;2023-06-19T10:16:07;12.93;;;10.52;;
21243;SDS011;10780;50.942;4.028;2023-06-19T10:18:47;15.50;;;10.88;;
21243;SDS011;10780;50.942;4.028;2023-06-19T10:21:16;16.67;;;11.70;;
21243;SDS011;10780;50.942;4.028;2023-06-19T10:23:56;12.02;;;10.32;;
21243;SDS011;10780;50.942;4.028;2023-06-19T10:26:30;13.18;;;11.02;;
21243;SDS011;10780;50.942;4.028;2023-06-19T10:28:59;12.90;;;11.60;;
21243;SDS011;10780;50.942;4.028;2023-06-19T10:31:25;14.05;;;11.18;;
21243;SDS011;10780;50.942;4.028;2023-06-19T10:33:53;11.98;;;10.45;;
21243;SDS011;10780;50.942;4.028;2023-06-19T10:36:20;11.90;;;10.65;;
21243;SDS011;10780;50.942;4.028;2023-06-19T10:38:48;12.38;;;10.38;;
21243;SDS011;10780;50.942;4.028;2023-06-19T10:41:24;16.15;;;11.75;;
21243;SDS011;10780;50.942;4.028;2023-06-19T10:43:57;17.77;;;13.80;;
21243;SDS011;10780;50.942;4.028;2023-06-19T10:46:24;16.65;;;14.27;;
21243;SDS011;10780;50.942;4.028;2023-06-19T10:48:55;17.42;;;13.52;;
21243;SDS011;10780;50.942;4.028;2023-06-19T10:51:25;15.45;;;13.00;;
21243;SDS011;10780;50.942;4.028;2023-06-19T10:53:55;15.70;;;12.07;;
21243;SDS011;10780;50.942;4.028;2023-06-19T10:56:22;14.52;;;12.30;;
21243;SDS011;10780;50.942;4.028;2023-06-19T10:59:02;12.02;;;10.82;;
21243;SDS011;10780;50.942;4.028;2023-06-19T11:04:02;15.60;;;12.18;;
21243;SDS011;10780;50.942;4.028;2023-06-19T11:06:32;13.73;;;10.07;;
21243;SDS011;10780;50.942;4.028;2023-06-19T11:08:59;11.52;;;9.95;;
21243;SDS011;10780;50.942;4.028;2023-06-19T11:11:38;11.30;;;8.77;;
21243;SDS011;10780;50.942;4.028;2023-06-19T11:14:06;9.55;;;8.15;;
21243;SDS011;10780;50.942;4.028;2023-06-19T11:16:37;10.27;;;8.43;;
21243;SDS011;10780;50.942;4.028;2023-06-19T11:19:06;12.48;;;8.60;;
21243;SDS011;10780;50.942;4.028;2023-06-19T11:21:34;9.82;;;8.27;;
21243;SDS011;10780;50.942;4.028;2023-06-19T11:24:04;10.63;;;8.40;;
21243;SDS011;10780;50.942;4.028;2023-06-19T11:26:38;10.93;;;8.45;;
21243;SDS011;10780;50.942;4.028;2023-06-19T11:29:17;9.23;;;7.88;;
21243;SDS011;10780;50.942;4.028;2023-06-19T11:31:47;9.23;;;7.95;;
21243;SDS011;10780;50.942;4.028;2023-06-19T11:34:14;9.15;;;7.18;;
21243;SDS011;10780;50.942;4.028;2023-06-19T11:36:41;8.93;;;8.02;;
21243;SDS011;10780;50.942;4.028;2023-06-19T11:39:11;10.38;;;7.85;;
21243;SDS011;10780;50.942;4.028;2023-06-19T11:41:38;11.15;;;9.13;;
21243;SDS011;10780;50.942;4.028;2023-06-19T11:44:05;8.90;;;7.95;;
21243;SDS011;10780;50.942;4.028;2023-06-19T11:46:33;11.95;;;7.72;;
21243;SDS011;10780;50.942;4.028;2023-06-19T11:49:12;12.40;;;8.90;;
21243;SDS011;10780;50.942;4.028;2023-06-19T11:51:39;9.40;;;7.93;;
21243;SDS011;10780;50.942;4.028;2023-06-19T11:54:06;8.80;;;7.70;;
21243;SDS011;10780;50.942;4.028;2023-06-19T11:56:36;11.52;;;8.02;;
21243;SDS011;10780;50.942;4.028;2023-06-19T11:59:03;12.07;;;8.77;;
21243;SDS011;10780;50.942;4.028;2023-06-19T12:01:31;9.82;;;7.75;;
21243;SDS011;10780;50.942;4.028;2023-06-19T12:03:57;11.77;;;7.95;;
21243;SDS011;10780;50.942;4.028;2023-06-19T12:06:23;11.27;;;7.68;;
21243;SDS011;10780;50.942;4.028;2023-06-19T12:08:50;15.25;;;8.15;;
21243;SDS011;10780;50.942;4.028;2023-06-19T12:11:15;9.27;;;7.75;;
21243;SDS011;10780;50.942;4.028;2023-06-19T12:13:41;10.55;;;8.93;;
21243;SDS011;10780;50.942;4.028;2023-06-19T12:16:07;13.57;;;8.57;;
21243;SDS011;10780;50.942;4.028;2023-06-19T12:18:34;10.48;;;7.80;;
21243;SDS011;10780;50.942;4.028;2023-06-19T12:21:00;10.18;;;8.05;;
21243;SDS011;10780;50.942;4.028;2023-06-19T12:23:26;11.13;;;8.82;;
21243;SDS011;10780;50.942;4.028;2023-06-19T12:25:52;13.38;;;8.38;;
21243;SDS011;10780;50.942;4.028;2023-06-19T12:28:17;13.98;;;8.75;;
21243;SDS011;10780;50.942;4.028;2023-06-19T12:30:47;13.63;;;8.68;;
21243;SDS011;10780;50.942;4.028;2023-06-19T12:33:17;11.93;;;7.53;;
21243;SDS011;10780;50.942;4.028;2023-06-19T12:35:44;13.60;;;8.02;;
21243;SDS011;10780;50.942;4.028;2023-06-19T12:38:10;9.75;;;8.30;;
21243;SDS011;10780;50.942;4.028;2023-06-19T12:40:36;11.30;;;7.35;;
21243;SDS011;10780;50.942;4.028;2023-06-19T12:43:02;11.77;;;7.50;;
21243;SDS011;10780;50.942;4.028;2023-06-19T12:45:28;11.57;;;8.18;;
21243;SDS011;10780;50.942;4.028;2023-06-19T12:47:54;10.10;;;7.95;;
21243;SDS011;10780;50.942;4.028;2023-06-19T12:50:20;10.73;;;7.68;;
21243;SDS011;10780;50.942;4.028;2023-06-19T12:52:45;10.23;;;7.40;;
21243;SDS011;10780;50.942;4.028;2023-06-19T12:55:11;11.05;;;7.70;;
21243;SDS011;10780;50.942;4.028;2023-06-19T12:57:36;9.45;;;7.25;;
21243;SDS011;10780;50.942;4.028;2023-06-19T13:00:03;8.90;;;7.60;;
21243;SDS011;10780;50.942;4.028;2023-06-19T13:02:33;8.95;;;7.20;;
21243;SDS011;10780;50.942;4.028;2023-06-19T13:04:59;9.30;;;7.60;;
21243;SDS011;10780;50.942;4.028;2023-06-19T13:07:25;10.57;;;7.25;;
21243;SDS011;10780;50.942;4.028;2023-06-19T13:09:51;11.50;;;7.32;;
21243;SDS011;10780;50.942;4.028;2023-06-19T13:12:16;10.40;;;7.63;;
21243;SDS011;10780;50.942;4.028;2023-06-19T13:14:42;9.32;;;7.05;;
21243;SDS011;10780;50.942;4.028;2023-06-19T13:17:08;10.13;;;8.15;;
21243;SDS011;10780;50.942;4.028;2023-06-19T13:19:34;9.00;;;7.35;;
21243;SDS011;10780;50.942;4.028;2023-06-19T13:21:59;10.45;;;7.30;;
21243;SDS011;10780;50.942;4.028;2023-06-19T13:24:25;11.63;;;6.70;;
21243;SDS011;10780;50.942;4.028;2023-06-19T13:26:52;9.30;;;7.00;;
21243;SDS011;10780;50.942;4.028;2023-06-19T13:29:18;8.05;;;7.22;;
21243;SDS011;10780;50.942;4.028;2023-06-19T13:31:44;8.32;;;7.00;;
21243;SDS011;10780;50.942;4.028;2023-06-19T13:34:10;9.60;;;7.05;;
21243;SDS011;10780;50.942;4.028;2023-06-19T13:36:36;7.45;;;6.32;;
21243;SDS011;10780;50.942;4.028;2023-06-19T13:39:02;8.13;;;6.82;;
21243;SDS011;10780;50.942;4.028;2023-06-19T13:41:28;8.10;;;6.25;;
21243;SDS011;10780;50.942;4.028;2023-06-19T13:43:56;8.40;;;6.70;;
21243;SDS011;10780;50.942;4.028;2023-06-19T13:46:22;9.02;;;6.75;;
21243;SDS011;10780;50.942;4.028;2023-06-19T13:48:47;7.72;;;6.70;;
21243;SDS011;10780;50.942;4.028;2023-06-19T13:51:16;6.57;;;5.97;;
21243;SDS011;10780;50.942;4.028;2023-06-19T13:53:45;8.38;;;6.90;;
21243;SDS011;10780;50.942;4.028;2023-06-19T13:56:11;8.02;;;6.45;;
21243;SDS011;10780;50.942;4.028;2023-06-19T13:58:37;8.65;;;6.47;;
21243;SDS011;10780;50.942;4.028;2023-06-19T14:01:06;8.48;;;6.10;;
21243;SDS011;10780;50.942;4.028;2023-06-19T14:03:32;8.25;;;6.35;;
21243;SDS011;10780;50.942;4.028;2023-06-19T14:05:57;8.23;;;6.13;;
21243;SDS011;10780;50.942;4.028;2023-06-19T14:08:23;8.40;;;6.25;;
21243;SDS011;10780;50.942;4.028;2023-06-19T14:10:49;10.88;;;6.35;;
21243;SDS011;10780;50.942;4.028;2023-06-19T14:13:16;11.02;;;6.40;;
21243;SDS011;10780;50.942;4.028;2023-06-19T14:15:41;12.50;;;7.30;;
21243;SDS011;10780;50.942;4.028;2023-06-19T14:18:07;9.13;;;6.68;;
21243;SDS011;10780;50.942;4.028;2023-06-19T14:20:33;8.93;;;6.80;;
21243;SDS011;10780;50.942;4.028;2023-06-19T14:22:59;7.82;;;6.90;;
21243;SDS011;10780;50.942;4.028;2023-06-19T14:25:25;7.63;;;5.70;;
21243;SDS011;10780;50.942;4.028;2023-06-19T14:27:50;8.30;;;5.90;;
21243;SDS011;10780;50.942;4.028;2023-06-19T14:30:16;7.68;;;5.40;;
21243;SDS011;10780;50.942;4.028;2023-06-19T14:32:41;6.32;;;5.53;;
21243;SDS011;10780;50.942;4.028;2023-06-19T14:35:07;9.73;;;6.95;;